sensor_id;sensor_type;location;lat;lon;timestamp;pressure;altitude;pressure_sealevel;temperature;humidity
56074;BME280;41950;55.840;37.442;2023-04-27T00:00:44;98914.47;;;9.65;77.33
56074;BME280;41950;55.840;37.442;2023-04-27T00:03:10;98891.53;;;9.49;77.83
56074;BME280;41950;55.840;37.442;2023-04-27T00:05:37;98910.31;;;9.59;77.86
56074;BME280;41950;55.840;37.442;2023-04-27T00:08:07;98914.56;;;9.62;77.52
56074;BME280;41950;55.840;37.442;2023-04-27T00:10:33;98787.72;;;8.92;76.91
56074;BME280;41950;55.840;37.442;2023-04-27T00:12:59;98737.53;;;8.63;77.02
56074;BME280;41950;55.840;37.442;2023-04-27T00:15:25;98884.78;;;9.44;77.52
56074;BME280;41950;55.840;37.442;2023-04-27T00:17:50;98865.47;;;9.21;77.47
56074;BME280;41950;55.840;37.442;2023-04-27T00:20:16;98861.31;;;9.16;77.85
56074;BME280;41950;55.840;37.442;2023-04-27T00:22:43;98924.47;;;9.44;78.30
56074;BME280;41950;55.840;37.442;2023-04-27T00:25:09;98873.47;;;9.12;78.42
56074;BME280;41950;55.840;37.442;2023-04-27T00:27:35;98912.75;;;9.29;78.38
56074;BME280;41950;55.840;37.442;2023-04-27T00:30:00;98897.41;;;9.22;78.47
56074;BME280;41950;55.840;37.442;2023-04-27T00:32:26;98928.19;;;9.34;78.72
56074;BME280;41950;55.840;37.442;2023-04-27T00:34:52;98864.25;;;9.01;78.83
56074;BME280;41950;55.840;37.442;2023-04-27T00:37:18;98905.25;;;9.19;78.80
56074;BME280;41950;55.840;37.442;2023-04-27T00:39:44;98860.31;;;8.86;79.25
56074;BME280;41950;55.840;37.442;2023-04-27T00:42:09;98802.53;;;8.48;79.05
56074;BME280;41950;55.840;37.442;2023-04-27T00:44:39;98891.84;;;9.02;79.14
56074;BME280;41950;55.840;37.442;2023-04-27T00:47:09;98873.13;;;8.90;79.07
56074;BME280;41950;55.840;37.442;2023-04-27T00:49:36;98942.97;;;9.29;79.31
56074;BME280;41950;55.840;37.442;2023-04-27T00:52:02;98911.53;;;9.09;79.39
56074;BME280;41950;55.840;37.442;2023-04-27T00:54:28;98936.16;;;9.25;79.54
56074;BME280;41950;55.840;37.442;2023-04-27T00:56:54;98783.19;;;8.27;79.77
56074;BME280;41950;55.840;37.442;2023-04-27T00:59:20;98835.16;;;8.55;79.81
56074;BME280;41950;55.840;37.442;2023-04-27T01:01:46;98864.81;;;8.76;79.53
56074;BME280;41950;55.840;37.442;2023-04-27T01:04:12;98851.53;;;8.56;79.83
56074;BME280;41950;55.840;37.442;2023-04-27T01:06:38;98858.13;;;8.67;79.85
56074;BME280;41950;55.840;37.442;2023-04-27T01:09:05;98714.38;;;7.83;79.70
56074;BME280;41950;55.840;37.442;2023-04-27T01:11:31;98784.91;;;8.27;80.16
56074;BME280;41950;55.840;37.442;2023-04-27T01:14:03;98905.75;;;8.97;80.35
56074;BME280;41950;55.840;37.442;2023-04-27T01:16:30;98857.03;;;8.79;80.20
56074;BME280;41950;55.840;37.442;2023-04-27T01:18:57;98782.06;;;8.39;79.99
56074;BME280;41950;55.840;37.442;2023-04-27T01:21:23;98713.38;;;7.89;79.50
56074;BME280;41950;55.840;37.442;2023-04-27T01:23:49;98744.81;;;8.09;80.11
56074;BME280;41950;55.840;37.442;2023-04-27T01:26:15;98699.72;;;7.84;80.17
56074;BME280;41950;55.840;37.442;2023-04-27T01:28:42;98741.38;;;8.09;80.03
56074;BME280;41950;55.840;37.442;2023-04-27T01:31:09;98750.06;;;8.04;80.30
56074;BME280;41950;55.840;37.442;2023-04-27T01:33:35;98816.53;;;8.40;80.11
56074;BME280;41950;55.840;37.442;2023-04-27T01:36:01;98893.53;;;8.65;80.23
56074;BME280;41950;55.840;37.442;2023-04-27T01:38:27;98825.53;;;8.22;80.67
56074;BME280;41950;55.840;37.442;2023-04-27T01:40:53;98855.97;;;8.49;80.30
56074;BME280;41950;55.840;37.442;2023-04-27T01:43:30;98902.97;;;8.68;80.69
56074;BME280;41950;55.840;37.442;2023-04-27T01:46:11;98926.66;;;8.88;81.10
56074;BME280;41950;55.840;37.442;2023-04-27T01:48:39;98906.28;;;8.73;80.88
56074;BME280;41950;55.840;37.442;2023-04-27T01:51:05;98942.00;;;8.96;81.15
56074;BME280;41950;55.840;37.442;2023-04-27T01:53:31;98800.69;;;8.13;80.77
56074;BME280;41950;55.840;37.442;2023-04-27T01:55:57;98768.44;;;7.91;81.20
56074;BME280;41950;55.840;37.442;2023-04-27T01:58:27;98923.25;;;8.86;81.18
56074;BME280;41950;55.840;37.442;2023-04-27T02:00:53;98749.69;;;7.83;80.92
56074;BME280;41950;55.840;37.442;2023-04-27T02:03:19;98778.91;;;7.85;81.34
56074;BME280;41950;55.840;37.442;2023-04-27T02:05:45;98780.69;;;7.83;81.75
56074;BME280;41950;55.840;37.442;2023-04-27T02:08:12;98735.41;;;7.65;81.61
56074;BME280;41950;55.840;37.442;2023-04-27T02:10:38;98734.72;;;7.57;81.51
56074;BME280;41950;55.840;37.442;2023-04-27T02:13:04;98795.16;;;7.90;81.61
56074;BME280;41950;55.840;37.442;2023-04-27T02:15:30;98891.53;;;8.38;81.48
56074;BME280;41950;55.840;37.442;2023-04-27T02:17:56;98750.38;;;7.49;82.27
56074;BME280;41950;55.840;37.442;2023-04-27T02:20:23;98834.69;;;7.95;82.20
56074;BME280;41950;55.840;37.442;2023-04-27T02:22:48;98848.25;;;8.06;82.18
56074;BME280;41950;55.840;37.442;2023-04-27T02:25:14;98782.63;;;7.71;82.17
56074;BME280;41950;55.840;37.442;2023-04-27T02:27:40;98812.44;;;7.88;82.10
56074;BME280;41950;55.840;37.442;2023-04-27T02:30:07;98812.28;;;7.94;81.90
56074;BME280;41950;55.840;37.442;2023-04-27T02:32:34;98798.72;;;7.84;82.02
56074;BME280;41950;55.840;37.442;2023-04-27T02:35:01;98722.22;;;7.35;81.68
56074;BME280;41950;55.840;37.442;2023-04-27T02:37:30;98997.31;;;8.92;81.92
56074;BME280;41950;55.840;37.442;2023-04-27T02:39:56;98879.69;;;8.28;81.76
56074;BME280;41950;55.840;37.442;2023-04-27T02:42:22;98802.09;;;7.88;81.65
56074;BME280;41950;55.840;37.442;2023-04-27T02:44:48;98887.13;;;8.43;82.02
56074;BME280;41950;55.840;37.442;2023-04-27T02:47:14;98767.88;;;7.78;81.88
56074;BME280;41950;55.840;37.442;2023-04-27T02:49:40;98913.59;;;8.56;81.79
56074;BME280;41950;55.840;37.442;2023-04-27T02:52:06;98889.56;;;8.51;81.91
56074;BME280;41950;55.840;37.442;2023-04-27T02:54:32;98801.13;;;7.95;81.71
56074;BME280;41950;55.840;37.442;2023-04-27T02:56:58;98866.47;;;8.42;81.78
56074;BME280;41950;55.840;37.442;2023-04-27T02:59:24;98834.22;;;8.16;81.63
56074;BME280;41950;55.840;37.442;2023-04-27T03:01:50;98994.81;;;9.26;81.70
56074;BME280;41950;55.840;37.442;2023-04-27T03:04:16;98807.56;;;8.14;81.74
56074;BME280;41950;55.840;37.442;2023-04-27T03:06:43;98923.97;;;8.93;81.50
56074;BME280;41950;55.840;37.442;2023-04-27T03:09:09;98995.56;;;9.31;81.63
56074;BME280;41950;55.840;37.442;2023-04-27T03:11:35;98940.00;;;9.09;81.50
56074;BME280;41950;55.840;37.442;2023-04-27T03:14:04;99019.34;;;9.48;81.36
56074;BME280;41950;55.840;37.442;2023-04-27T03:16:31;98978.94;;;9.41;81.42
56074;BME280;41950;55.840;37.442;2023-04-27T03:18:57;98845.19;;;8.67;80.98
56074;BME280;41950;55.840;37.442;2023-04-27T03:21:23;98760.09;;;8.18;80.91
56074;BME280;41950;55.840;37.442;2023-04-27T03:23:49;98850.88;;;8.83;81.05
56074;BME280;41950;55.840;37.442;2023-04-27T03:26:15;98827.78;;;8.74;80.45
56074;BME280;41950;55.840;37.442;2023-04-27T03:28:41;98921.47;;;9.25;80.55
56074;BME280;41950;55.840;37.442;2023-04-27T03:31:12;98856.41;;;9.05;80.37
56074;BME280;41950;55.840;37.442;2023-04-27T03:33:39;98906.91;;;9.55;80.27
56074;BME280;41950;55.840;37.442;2023-04-27T03:36:06;99007.25;;;10.18;80.18
56074;BME280;41950;55.840;37.442;2023-04-27T03:38:32;98878.66;;;9.46;79.58
56074;BME280;41950;55.840;37.442;2023-04-27T03:40:58;99015.47;;;10.34;79.01
56074;BME280;41950;55.840;37.442;2023-04-27T03:43:24;98967.75;;;10.07;79.06
56074;BME280;41950;55.840;37.442;2023-04-27T03:45:51;99024.81;;;10.41;79.28
56074;BME280;41950;55.840;37.442;2023-04-27T03:48:17;98965.00;;;10.13;79.37
56074;BME280;41950;55.840;37.442;2023-04-27T03:50:43;98975.97;;;10.25;78.45
56074;BME280;41950;55.840;37.442;2023-04-27T03:53:09;98911.88;;;9.97;77.57
56074;BME280;41950;55.840;37.442;2023-04-27T03:55:44;98836.75;;;9.65;77.04
56074;BME280;41950;55.840;37.442;2023-04-27T03:58:11;98897.03;;;10.02;77.41
56074;BME280;41950;55.840;37.442;2023-04-27T04:00:37;98822.94;;;9.64;77.18
56074;BME280;41950;55.840;37.442;2023-04-27T04:03:04;98874.16;;;9.85;76.99
56074;BME280;41950;55.840;37.442;2023-04-27T04:05:31;98831.19;;;9.78;76.50
56074;BME280;41950;55.840;37.442;2023-04-27T04:08:00;98797.28;;;9.55;76.91
56074;BME280;41950;55.840;37.442;2023-04-27T04:10:26;98945.84;;;10.51;76.46
56074;BME280;41950;55.840;37.442;2023-04-27T04:12:52;98905.50;;;10.40;75.94
56074;BME280;41950;55.840;37.442;2023-04-27T04:15:18;98952.94;;;10.74;75.65
56074;BME280;41950;55.840;37.442;2023-04-27T04:17:44;99051.59;;;11.33;75.92
56074;BME280;41950;55.840;37.442;2023-04-27T04:20:12;98798.91;;;9.90;76.09
56074;BME280;41950;55.840;37.442;2023-04-27T04:22:38;98824.19;;;10.11;75.86
56074;BME280;41950;55.840;37.442;2023-04-27T04:25:04;99051.94;;;11.49;74.77
56074;BME280;41950;55.840;37.442;2023-04-27T04:27:31;98959.66;;;11.09;73.75
56074;BME280;41950;55.840;37.442;2023-04-27T04:29:56;98906.78;;;10.84;72.93
56074;BME280;41950;55.840;37.442;2023-04-27T04:32:25;98885.97;;;10.86;72.46
56074;BME280;41950;55.840;37.442;2023-04-27T04:34:54;99055.81;;;11.92;71.35
56074;BME280;41950;55.840;37.442;2023-04-27T04:37:20;98815.06;;;10.57;70.72
56074;BME280;41950;55.840;37.442;2023-04-27T04:39:46;99035.78;;;11.95;70.46
56074;BME280;41950;55.840;37.442;2023-04-27T04:42:11;98908.16;;;11.24;70.13
56074;BME280;41950;55.840;37.442;2023-04-27T04:44:43;98975.66;;;11.80;69.49
56074;BME280;41950;55.840;37.442;2023-04-27T04:47:09;99059.50;;;12.37;68.50
56074;BME280;41950;55.840;37.442;2023-04-27T04:49:35;98896.69;;;11.56;67.61
56074;BME280;41950;55.840;37.442;2023-04-27T04:52:02;98808.09;;;11.12;66.83
56074;BME280;41950;55.840;37.442;2023-04-27T04:54:29;98941.81;;;12.04;66.30
56074;BME280;41950;55.840;37.442;2023-04-27T04:56:55;98896.75;;;11.81;65.91
56074;BME280;41950;55.840;37.442;2023-04-27T04:59:22;99000.72;;;12.55;65.73
56074;BME280;41950;55.840;37.442;2023-04-27T05:01:48;98779.13;;;11.24;65.20
56074;BME280;41950;55.840;37.442;2023-04-27T05:04:16;99064.44;;;12.93;64.31
56074;BME280;41950;55.840;37.442;2023-04-27T05:06:42;98864.25;;;11.92;63.09
56074;BME280;41950;55.840;37.442;2023-04-27T05:09:08;99070.94;;;13.05;62.25
56074;BME280;41950;55.840;37.442;2023-04-27T05:11:34;99067.44;;;13.06;62.19
56074;BME280;41950;55.840;37.442;2023-04-27T05:14:00;98886.53;;;11.99;61.98
56074;BME280;41950;55.840;37.442;2023-04-27T05:16:25;98976.75;;;12.71;61.93
56074;BME280;41950;55.840;37.442;2023-04-27T05:18:51;99065.81;;;13.27;61.65
56074;BME280;41950;55.840;37.442;2023-04-27T05:21:19;98961.00;;;12.74;61.67
56074;BME280;41950;55.840;37.442;2023-04-27T05:23:45;98989.47;;;13.02;61.64
56074;BME280;41950;55.840;37.442;2023-04-27T05:26:16;98983.41;;;13.01;61.27
56074;BME280;41950;55.840;37.442;2023-04-27T05:28:42;98988.88;;;13.18;61.12
56074;BME280;41950;55.840;37.442;2023-04-27T05:31:10;98988.75;;;13.21;60.77
56074;BME280;41950;55.840;37.442;2023-04-27T05:33:39;98890.09;;;12.67;60.31
56074;BME280;41950;55.840;37.442;2023-04-27T05:36:05;98938.34;;;12.99;60.55
56074;BME280;41950;55.840;37.442;2023-04-27T05:38:31;98889.94;;;12.72;60.28
56074;BME280;41950;55.840;37.442;2023-04-27T05:41:01;99017.78;;;13.56;59.80
56074;BME280;41950;55.840;37.442;2023-04-27T05:43:27;99011.59;;;13.58;59.70
56074;BME280;41950;55.840;37.442;2023-04-27T05:45:56;98988.25;;;13.55;59.74
56074;BME280;41950;55.840;37.442;2023-04-27T05:48:22;98914.22;;;13.17;59.86
56074;BME280;41950;55.840;37.442;2023-04-27T05:50:48;99053.88;;;14.09;59.17
56074;BME280;41950;55.840;37.442;2023-04-27T05:53:14;99062.28;;;14.15;58.44
56074;BME280;41950;55.840;37.442;2023-04-27T05:55:39;99022.94;;;14.00;58.30
56074;BME280;41950;55.840;37.442;2023-04-27T05:58:08;99059.63;;;14.37;58.32
56074;BME280;41950;55.840;37.442;2023-04-27T06:00:33;98902.34;;;13.52;57.49
56074;BME280;41950;55.840;37.442;2023-04-27T06:02:59;98857.28;;;13.28;56.82
56074;BME280;41950;55.840;37.442;2023-04-27T06:05:25;98985.69;;;14.16;57.09
56074;BME280;41950;55.840;37.442;2023-04-27T06:07:51;99009.97;;;14.39;56.66
56074;BME280;41950;55.840;37.442;2023-04-27T06:10:17;99013.03;;;14.48;56.55
56074;BME280;41950;55.840;37.442;2023-04-27T06:12:42;99063.59;;;14.87;56.49
56074;BME280;41950;55.840;37.442;2023-04-27T06:15:09;99059.78;;;14.94;56.55
56074;BME280;41950;55.840;37.442;2023-04-27T06:17:36;98990.72;;;14.62;56.16
56074;BME280;41950;55.840;37.442;2023-04-27T06:20:04;99064.75;;;15.19;55.90
56074;BME280;41950;55.840;37.442;2023-04-27T06:22:37;98941.56;;;14.51;55.83
56074;BME280;41950;55.840;37.442;2023-04-27T06:25:04;98992.16;;;14.88;55.27
56074;BME280;41950;55.840;37.442;2023-04-27T06:27:32;98997.22;;;14.91;55.02
56074;BME280;41950;55.840;37.442;2023-04-27T06:29:58;98976.47;;;14.88;55.48
56074;BME280;41950;55.840;37.442;2023-04-27T06:32:25;98838.84;;;14.13;54.42
56074;BME280;41950;55.840;37.442;2023-04-27T06:34:51;98873.75;;;14.49;53.08
56074;BME280;41950;55.840;37.442;2023-04-27T06:37:16;98950.69;;;14.99;53.48
56074;BME280;41950;55.840;37.442;2023-04-27T06:39:43;99058.19;;;15.66;52.74
56074;BME280;41950;55.840;37.442;2023-04-27T06:42:09;99020.06;;;15.61;52.84
56074;BME280;41950;55.840;37.442;2023-04-27T06:44:35;99027.50;;;15.70;52.26
56074;BME280;41950;55.840;37.442;2023-04-27T06:47:01;99032.59;;;15.73;52.32
56074;BME280;41950;55.840;37.442;2023-04-27T06:49:27;98998.88;;;15.67;52.19
56074;BME280;41950;55.840;37.442;2023-04-27T06:51:52;98964.81;;;15.50;51.14
56074;BME280;41950;55.840;37.442;2023-04-27T06:54:18;99053.63;;;16.06;51.64
56074;BME280;41950;55.840;37.442;2023-04-27T06:56:44;98968.66;;;15.61;50.73
56074;BME280;41950;55.840;37.442;2023-04-27T06:59:10;99030.38;;;16.00;50.19
56074;BME280;41950;55.840;37.442;2023-04-27T07:01:36;98881.34;;;15.28;50.39
56074;BME280;41950;55.840;37.442;2023-04-27T07:04:03;98937.78;;;15.68;49.42
56074;BME280;41950;55.840;37.442;2023-04-27T07:06:29;99031.91;;;16.38;49.06
56074;BME280;41950;55.840;37.442;2023-04-27T07:08:55;99039.22;;;16.49;49.83
56074;BME280;41950;55.840;37.442;2023-04-27T07:11:21;99078.84;;;16.93;49.11
56074;BME280;41950;55.840;37.442;2023-04-27T07:13:47;98947.59;;;16.15;47.63
56074;BME280;41950;55.840;37.442;2023-04-27T07:16:12;99062.53;;;16.88;47.97
56074;BME280;41950;55.840;37.442;2023-04-27T07:18:39;99002.06;;;16.58;47.26
56074;BME280;41950;55.840;37.442;2023-04-27T07:21:05;99049.25;;;16.91;47.05
56074;BME280;41950;55.840;37.442;2023-04-27T07:23:31;99046.03;;;16.86;46.88
56074;BME280;41950;55.840;37.442;2023-04-27T07:25:57;99017.72;;;16.77;46.46
56074;BME280;41950;55.840;37.442;2023-04-27T07:28:24;98935.94;;;16.37;45.95
56074;BME280;41950;55.840;37.442;2023-04-27T07:30:49;99051.31;;;17.18;46.19
56074;BME280;41950;55.840;37.442;2023-04-27T07:33:16;99068.84;;;17.49;46.28
56074;BME280;41950;55.840;37.442;2023-04-27T07:35:42;99073.00;;;17.53;44.35
56074;BME280;41950;55.840;37.442;2023-04-27T07:38:08;99077.25;;;17.55;43.16
56074;BME280;41950;55.840;37.442;2023-04-27T07:40:34;99035.44;;;17.37;43.33
56074;BME280;41950;55.840;37.442;2023-04-27T07:42:59;99029.94;;;17.41;43.23
56074;BME280;41950;55.840;37.442;2023-04-27T07:45:26;99063.38;;;17.69;43.01
56074;BME280;41950;55.840;37.442;2023-04-27T07:47:59;99090.13;;;17.91;42.73
56074;BME280;41950;55.840;37.442;2023-04-27T07:50:26;99066.22;;;17.96;42.30
56074;BME280;41950;55.840;37.442;2023-04-27T07:52:52;99051.09;;;17.85;41.79
56074;BME280;41950;55.840;37.442;2023-04-27T07:55:19;99064.84;;;18.05;42.40
56074;BME280;41950;55.840;37.442;2023-04-27T07:57:46;99030.41;;;17.95;41.54
56074;BME280;41950;55.840;37.442;2023-04-27T08:00:12;99073.81;;;18.16;41.01
56074;BME280;41950;55.840;37.442;2023-04-27T08:02:39;99040.50;;;17.87;41.44
56074;BME280;41950;55.840;37.442;2023-04-27T08:05:05;99085.69;;;18.08;41.09
56074;BME280;41950;55.840;37.442;2023-04-27T08:07:32;99037.22;;;17.83;40.64
56074;BME280;41950;55.840;37.442;2023-04-27T08:09:58;99029.28;;;17.99;40.00
56074;BME280;41950;55.840;37.442;2023-04-27T08:12:24;99081.97;;;18.42;39.74
56074;BME280;41950;55.840;37.442;2023-04-27T08:14:50;99079.91;;;18.61;40.40
56074;BME280;41950;55.840;37.442;2023-04-27T08:17:17;99058.56;;;18.67;39.94
56074;BME280;41950;55.840;37.442;2023-04-27T08:19:43;99006.63;;;18.42;39.18
56074;BME280;41950;55.840;37.442;2023-04-27T08:22:11;99071.44;;;18.86;39.10
56074;BME280;41950;55.840;37.442;2023-04-27T08:24:37;99049.94;;;18.65;38.64
56074;BME280;41950;55.840;37.442;2023-04-27T08:27:04;99077.09;;;18.94;38.45
56074;BME280;41950;55.840;37.442;2023-04-27T08:29:30;99038.88;;;18.74;38.15
56074;BME280;41950;55.840;37.442;2023-04-27T08:31:58;98985.78;;;18.53;38.79
56074;BME280;41950;55.840;37.442;2023-04-27T08:34:25;99016.31;;;18.84;38.88
56074;BME280;41950;55.840;37.442;2023-04-27T08:36:51;99019.69;;;19.01;39.00
56074;BME280;41950;55.840;37.442;2023-04-27T08:39:18;99071.44;;;19.29;38.44
56074;BME280;41950;55.840;37.442;2023-04-27T08:41:44;99002.44;;;18.97;38.25
56074;BME280;41950;55.840;37.442;2023-04-27T08:44:10;99078.47;;;19.57;37.89
56074;BME280;41950;55.840;37.442;2023-04-27T08:46:39;98871.78;;;18.42;38.37
56074;BME280;41950;55.840;37.442;2023-04-27T08:49:05;99008.09;;;19.32;37.31
56074;BME280;41950;55.840;37.442;2023-04-27T08:51:34;98922.41;;;18.87;37.89
56074;BME280;41950;55.840;37.442;2023-04-27T08:54:00;99068.06;;;19.82;37.47
56074;BME280;41950;55.840;37.442;2023-04-27T08:56:28;99060.59;;;19.89;38.08
56074;BME280;41950;55.840;37.442;2023-04-27T08:58:55;98986.13;;;19.60;37.43
56074;BME280;41950;55.840;37.442;2023-04-27T09:01:24;99068.31;;;20.31;37.51
56074;BME280;41950;55.840;37.442;2023-04-27T09:03:55;98982.97;;;19.94;37.84
56074;BME280;41950;55.840;37.442;2023-04-27T09:06:32;99053.72;;;20.65;38.72
56074;BME280;41950;55.840;37.442;2023-04-27T09:08:59;99008.78;;;20.54;39.76
56074;BME280;41950;55.840;37.442;2023-04-27T09:11:32;99079.44;;;21.13;38.44
56074;BME280;41950;55.840;37.442;2023-04-27T09:14:01;99019.84;;;20.85;36.85
56074;BME280;41950;55.840;37.442;2023-04-27T09:16:29;98970.91;;;20.30;37.71
56074;BME280;41950;55.840;37.442;2023-04-27T09:18:56;98979.91;;;20.40;38.57
56074;BME280;41950;55.840;37.442;2023-04-27T09:21:30;98943.47;;;20.20;39.30
56074;BME280;41950;55.840;37.442;2023-04-27T09:23:57;99035.91;;;20.56;39.09
56074;BME280;41950;55.840;37.442;2023-04-27T09:26:24;98935.25;;;19.86;40.15
56074;BME280;41950;55.840;37.442;2023-04-27T09:28:53;98988.81;;;20.12;38.86
56074;BME280;41950;55.840;37.442;2023-04-27T09:31:30;99063.75;;;20.60;38.25
56074;BME280;41950;55.840;37.442;2023-04-27T09:33:56;99049.19;;;20.67;38.81
56074;BME280;41950;55.840;37.442;2023-04-27T09:36:22;99007.09;;;20.66;37.83
56074;BME280;41950;55.840;37.442;2023-04-27T09:38:49;98950.66;;;20.68;37.69
56074;BME280;41950;55.840;37.442;2023-04-27T09:41:16;99003.09;;;21.22;37.05
56074;BME280;41950;55.840;37.442;2023-04-27T09:43:44;98973.91;;;21.00;36.50
56074;BME280;41950;55.840;37.442;2023-04-27T09:46:13;99060.94;;;21.75;36.74
56074;BME280;41950;55.840;37.442;2023-04-27T09:48:40;99068.97;;;21.97;35.38
56074;BME280;41950;55.840;37.442;2023-04-27T09:51:06;98992.50;;;21.48;36.04
56074;BME280;41950;55.840;37.442;2023-04-27T09:53:39;98877.19;;;20.26;34.36
56074;BME280;41950;55.840;37.442;2023-04-27T09:56:41;99071.31;;;21.03;35.27
56074;BME280;41950;55.840;37.442;2023-04-27T10:02:22;99004.13;;;21.69;35.52
56074;BME280;41950;55.840;37.442;2023-04-27T10:05:00;99068.31;;;22.06;34.82
56074;BME280;41950;55.840;37.442;2023-04-27T10:07:30;98925.47;;;20.64;35.04
56074;BME280;41950;55.840;37.442;2023-04-27T10:10:01;98984.81;;;20.95;35.15
56074;BME280;41950;55.840;37.442;2023-04-27T10:12:34;98828.75;;;19.90;35.52
56074;BME280;41950;55.840;37.442;2023-04-27T10:15:16;99009.78;;;21.15;34.61
56074;BME280;41950;55.840;37.442;2023-04-27T10:17:47;98944.97;;;21.48;33.97
56074;BME280;41950;55.840;37.442;2023-04-27T10:20:13;99037.59;;;22.63;32.16
56074;BME280;41950;55.840;37.442;2023-04-27T10:22:45;98916.50;;;21.75;32.37
56074;BME280;41950;55.840;37.442;2023-04-27T10:25:18;99059.31;;;23.35;31.85
56074;BME280;41950;55.840;37.442;2023-04-27T10:27:56;99049.25;;;24.15;31.08
56074;BME280;41950;55.840;37.442;2023-04-27T10:30:24;98823.59;;;22.82;30.71
56074;BME280;41950;55.840;37.442;2023-04-27T10:32:56;98926.88;;;22.92;31.45
56074;BME280;41950;55.840;37.442;2023-04-27T10:35:43;98895.97;;;22.36;32.32
56074;BME280;41950;55.840;37.442;2023-04-27T10:38:19;98997.00;;;22.97;32.53
56074;BME280;41950;55.840;37.442;2023-04-27T10:40:59;99030.19;;;22.79;32.47
56074;BME280;41950;55.840;37.442;2023-04-27T10:43:30;99026.25;;;22.38;33.33
56074;BME280;41950;55.840;37.442;2023-04-27T10:46:10;99058.38;;;22.10;33.28
56074;BME280;41950;55.840;37.442;2023-04-27T10:48:38;99039.09;;;21.73;33.73
56074;BME280;41950;55.840;37.442;2023-04-27T10:51:05;98991.34;;;21.87;33.13
56074;BME280;41950;55.840;37.442;2023-04-27T10:53:37;98968.13;;;22.49;32.16
56074;BME280;41950;55.840;37.442;2023-04-27T10:56:04;98856.59;;;22.22;30.43
56074;BME280;41950;55.840;37.442;2023-04-27T10:58:32;99061.50;;;23.95;30.07
56074;BME280;41950;55.840;37.442;2023-04-27T11:00:58;98959.53;;;24.20;28.01
56074;BME280;41950;55.840;37.442;2023-04-27T11:03:24;99014.91;;;25.07;28.48
56074;BME280;41950;55.840;37.442;2023-04-27T11:06:01;99042.13;;;25.39;28.31
56074;BME280;41950;55.840;37.442;2023-04-27T11:08:29;99015.56;;;24.48;29.20
56074;BME280;41950;55.840;37.442;2023-04-27T11:11:00;99015.78;;;23.71;30.46
56074;BME280;41950;55.840;37.442;2023-04-27T11:13:26;99026.16;;;23.52;30.38
56074;BME280;41950;55.840;37.442;2023-04-27T11:15:54;99020.44;;;23.90;30.02
56074;BME280;41950;55.840;37.442;2023-04-27T11:18:26;98985.78;;;23.16;30.63
56074;BME280;41950;55.840;37.442;2023-04-27T11:21:04;99021.72;;;22.63;31.40
56074;BME280;41950;55.840;37.442;2023-04-27T11:23:32;98950.81;;;22.57;31.24
56074;BME280;41950;55.840;37.442;2023-04-27T11:26:19;99078.53;;;24.46;31.78
56074;BME280;41950;55.840;37.442;2023-04-27T11:29:03;99059.63;;;25.42;29.21
56074;BME280;41950;55.840;37.442;2023-04-27T11:31:39;99038.06;;;25.85;28.17
56074;BME280;41950;55.840;37.442;2023-04-27T11:34:06;98908.84;;;25.05;28.33
56074;BME280;41950;55.840;37.442;2023-04-27T11:36:32;98888.22;;;24.38;29.20
56074;BME280;41950;55.840;37.442;2023-04-27T11:38:58;99071.25;;;25.50;29.04
56074;BME280;41950;55.840;37.442;2023-04-27T11:41:34;98867.38;;;25.23;29.23
56074;BME280;41950;55.840;37.442;2023-04-27T11:44:07;99088.41;;;26.93;27.00
56074;BME280;41950;55.840;37.442;2023-04-27T11:46:37;98993.28;;;25.90;27.73
56074;BME280;41950;55.840;37.442;2023-04-27T11:49:04;98962.38;;;25.01;28.52
56074;BME280;41950;55.840;37.442;2023-04-27T11:51:31;99079.56;;;24.75;29.78
56074;BME280;41950;55.840;37.442;2023-04-27T11:54:04;99041.50;;;23.59;32.30
56074;BME280;41950;55.840;37.442;2023-04-27T11:56:48;99041.28;;;22.84;33.92
56074;BME280;41950;55.840;37.442;2023-04-27T11:59:19;99075.16;;;22.79;34.50
56074;BME280;41950;55.840;37.442;2023-04-27T12:01:45;99058.28;;;22.69;34.89
56074;BME280;41950;55.840;37.442;2023-04-27T12:04:11;99035.69;;;22.54;34.24
56074;BME280;41950;55.840;37.442;2023-04-27T12:06:37;99056.41;;;22.93;34.08
56074;BME280;41950;55.840;37.442;2023-04-27T12:09:03;98947.31;;;23.12;32.87
56074;BME280;41950;55.840;37.442;2023-04-27T12:11:29;99057.84;;;24.40;31.66
56074;BME280;41950;55.840;37.442;2023-04-27T12:13:56;99080.41;;;25.27;31.21
56074;BME280;41950;55.840;37.442;2023-04-27T12:16:22;98967.59;;;25.31;29.76
56074;BME280;41950;55.840;37.442;2023-04-27T12:18:51;98996.91;;;25.99;28.64
56074;BME280;41950;55.840;37.442;2023-04-27T12:21:17;99046.31;;;26.59;28.78
56074;BME280;41950;55.840;37.442;2023-04-27T12:23:43;98847.50;;;25.08;29.17
56074;BME280;41950;55.840;37.442;2023-04-27T12:26:11;98931.03;;;25.83;28.72
56074;BME280;41950;55.840;37.442;2023-04-27T12:28:39;98946.53;;;25.87;28.67
56074;BME280;41950;55.840;37.442;2023-04-27T12:31:05;98947.84;;;24.74;29.29
56074;BME280;41950;55.840;37.442;2023-04-27T12:33:31;98840.50;;;23.02;30.50
56074;BME280;41950;55.840;37.442;2023-04-27T12:35:57;98916.56;;;23.32;31.35
56074;BME280;41950;55.840;37.442;2023-04-27T12:38:22;98877.66;;;23.00;30.69
56074;BME280;41950;55.840;37.442;2023-04-27T12:40:48;98841.19;;;22.49;30.66
56074;BME280;41950;55.840;37.442;2023-04-27T12:43:14;98859.22;;;22.22;31.27
56074;BME280;41950;55.840;37.442;2023-04-27T12:45:40;98833.09;;;21.84;31.97
56074;BME280;41950;55.840;37.442;2023-04-27T12:48:06;98941.56;;;21.94;32.47
56074;BME280;41950;55.840;37.442;2023-04-27T12:50:32;98917.22;;;21.42;33.24
56074;BME280;41950;55.840;37.442;2023-04-27T12:52:58;98946.69;;;21.60;34.78
56074;BME280;41950;55.840;37.442;2023-04-27T12:55:25;98980.59;;;21.66;34.26
56074;BME280;41950;55.840;37.442;2023-04-27T12:57:51;98923.03;;;21.11;35.25